createdAt,value
2023-04-02T00:01:44.234Z,9.59
2023-04-02T00:05:26.268Z,9.63
2023-04-02T00:08:44.820Z,9.60
2023-04-02T00:12:00.527Z,9.57
2023-04-02T00:15:17.527Z,9.56
2023-04-02T00:18:31.264Z,9.58
2023-04-02T00:21:45.656Z,9.57
2023-04-02T00:25:04.563Z,9.57
2023-04-02T00:28:21.781Z,9.58
2023-04-02T00:31:32.215Z,9.48
2023-04-02T00:34:46.617Z,9.47
2023-04-02T00:37:59.500Z,9.50
2023-04-02T00:41:15.089Z,9.55
2023-04-02T00:44:29.483Z,9.58
2023-04-02T00:47:45.022Z,9.61
2023-04-02T00:50:59.712Z,9.63
2023-04-02T00:54:16.324Z,9.61
2023-04-02T00:57:33.759Z,9.63
2023-04-02T01:00:46.717Z,9.67
2023-04-02T01:04:05.878Z,9.66
2023-04-02T01:07:19.389Z,9.56
2023-04-02T01:10:59.444Z,9.58
2023-04-02T01:14:19.319Z,9.58
2023-04-02T01:17:49.085Z,9.51
2023-04-02T01:21:21.306Z,9.37
2023-04-02T01:24:38.868Z,9.43
2023-04-02T01:27:56.309Z,9.40
2023-04-02T01:31:10.127Z,9.42
2023-04-02T01:34:26.823Z,9.41
2023-04-02T01:37:49.903Z,9.47
2023-04-02T01:41:07.574Z,9.45
2023-04-02T01:44:25.450Z,9.40
2023-04-02T01:47:37.979Z,9.36
2023-04-02T01:50:53.028Z,9.35
2023-04-02T01:54:09.387Z,9.35
2023-04-02T01:57:22.232Z,9.41
2023-04-02T02:00:37.574Z,9.38
2023-04-02T02:03:51.775Z,9.37
2023-04-02T02:07:05.435Z,9.34
2023-04-02T02:10:22.418Z,9.30
2023-04-02T02:13:35.027Z,9.25
2023-04-02T02:16:48.252Z,9.23
2023-04-02T02:20:06.878Z,9.23
2023-04-02T02:23:20.563Z,9.19
2023-04-02T02:26:36.101Z,9.13
2023-04-02T02:29:51.813Z,9.11
2023-04-02T02:33:10.956Z,9.15
2023-04-02T02:36:28.246Z,9.08
2023-04-02T02:39:47.469Z,9.03
2023-04-02T02:43:05.982Z,9.08
2023-04-02T02:46:24.057Z,9.00
2023-04-02T02:49:40.963Z,9.05
2023-04-02T02:52:58.542Z,9.05
2023-04-02T02:56:12.592Z,8.99
2023-04-02T02:59:27.834Z,8.95
2023-04-02T03:02:44.468Z,8.90
2023-04-02T03:06:03.122Z,8.93
2023-04-02T03:09:23.486Z,8.98
2023-04-02T03:12:48.229Z,8.90
2023-04-02T03:16:07.171Z,8.96
2023-04-02T03:19:28.239Z,8.97
2023-04-02T03:22:45.747Z,8.89
2023-04-02T03:26:02.907Z,8.95
2023-04-02T03:29:21.352Z,8.97
2023-04-02T03:32:39.015Z,8.93
2023-04-02T03:35:59.263Z,8.86
2023-04-02T03:39:17.945Z,8.93
2023-04-02T03:42:34.976Z,8.88
2023-04-02T03:45:53.489Z,8.85
2023-04-02T03:49:10.868Z,8.87
2023-04-02T03:52:29.485Z,8.89
2023-04-02T03:55:46.667Z,8.84
2023-04-02T03:59:08.386Z,8.84
2023-04-02T04:02:32.166Z,8.88
2023-04-02T04:05:50.864Z,8.89
2023-04-02T04:09:09.283Z,8.87
2023-04-02T04:12:30.846Z,8.75
2023-04-02T04:15:47.673Z,8.79
2023-04-02T04:19:07.209Z,8.79
2023-04-02T04:22:26.300Z,8.78
2023-04-02T04:25:40.434Z,8.68
2023-04-02T04:29:03.767Z,8.75
2023-04-02T04:32:32.260Z,8.77
2023-04-02T04:35:51.174Z,8.79
2023-04-02T04:39:09.480Z,8.77
2023-04-02T04:42:27.456Z,8.76
2023-04-02T04:45:51.783Z,8.75
2023-04-02T04:49:12.686Z,8.78
2023-04-02T04:52:29.687Z,8.79
2023-04-02T04:55:47.686Z,8.79
2023-04-02T04:59:05.017Z,8.81
2023-04-02T05:02:22.813Z,8.81
2023-04-02T05:05:41.091Z,8.80
2023-04-02T05:08:59.538Z,8.77
2023-04-02T05:12:20.367Z,8.77
2023-04-02T05:15:37.073Z,8.81
2023-04-02T05:18:55.686Z,8.83
2023-04-02T05:22:19.051Z,8.80
2023-04-02T05:25:35.241Z,8.76
2023-04-02T05:28:55.938Z,8.77
2023-04-02T05:32:13.349Z,8.75
2023-04-02T05:35:26.035Z,8.78
2023-04-02T05:38:41.318Z,8.72
2023-04-02T05:41:56.555Z,8.73
2023-04-02T05:45:24.026Z,8.75
2023-04-02T05:48:43.540Z,8.71
2023-04-02T05:52:02.323Z,8.68
2023-04-02T05:55:34.288Z,8.70
2023-04-02T05:58:50.890Z,8.70
2023-04-02T06:02:14.375Z,8.72
2023-04-02T06:05:32.778Z,8.65
2023-04-02T06:08:49.428Z,8.63
2023-04-02T06:12:07.408Z,8.66
2023-04-02T06:15:25.038Z,8.66
2023-04-02T06:18:42.203Z,8.57
2023-04-02T06:21:57.249Z,8.64
2023-04-02T06:25:16.148Z,8.78
2023-04-02T06:28:33.941Z,8.86
2023-04-02T06:31:51.956Z,8.87
2023-04-02T06:35:06.191Z,8.91
2023-04-02T06:38:26.918Z,8.91
2023-04-02T06:41:40.062Z,8.92
2023-04-02T06:45:18.049Z,8.92
2023-04-02T06:48:35.053Z,8.90
2023-04-02T06:51:50.397Z,8.88
2023-04-02T06:55:03.265Z,8.83
2023-04-02T06:58:16.899Z,8.83
2023-04-02T07:01:34.053Z,8.84
2023-04-02T07:04:46.846Z,8.84
2023-04-02T07:07:59.705Z,8.87
2023-04-02T07:11:18.746Z,8.88
2023-04-02T07:14:31.664Z,8.93
2023-04-02T07:17:44.412Z,9.05
2023-04-02T07:20:56.793Z,9.00
2023-04-02T07:24:10.684Z,9.13
2023-04-02T07:27:23.375Z,9.17
2023-04-02T07:30:35.598Z,9.30
2023-04-02T07:33:47.873Z,9.38
2023-04-02T07:37:00.438Z,9.45
2023-04-02T07:40:23.157Z,9.42
2023-04-02T07:43:35.828Z,9.22
2023-04-02T07:46:47.989Z,9.10
2023-04-02T07:50:00.377Z,9.21
2023-04-02T07:53:17.448Z,9.25
2023-04-02T07:56:28.993Z,9.36
2023-04-02T07:59:41.534Z,9.35
2023-04-02T08:02:54.740Z,9.36
2023-04-02T08:06:07.097Z,9.36
2023-04-02T08:09:20.078Z,9.33
2023-04-02T08:12:32.496Z,9.26
2023-04-02T08:15:44.983Z,9.20
2023-04-02T08:18:57.383Z,9.18
2023-04-02T08:22:09.719Z,9.17
2023-04-02T08:25:22.910Z,9.16
2023-04-02T08:28:35.331Z,9.00
2023-04-02T08:31:48.273Z,9.14
2023-04-02T08:35:01.078Z,9.12
2023-04-02T08:38:14.934Z,9.06
2023-04-02T08:41:33.410Z,9.03
2023-04-02T08:44:56.567Z,8.99
2023-04-02T08:48:09.872Z,9.04
2023-04-02T08:51:29.918Z,8.83
2023-04-02T08:54:43.832Z,8.16
2023-04-02T08:58:02.490Z,7.69
2023-04-02T09:01:20.085Z,7.64
2023-04-02T09:04:33.382Z,7.23
2023-04-02T09:07:45.779Z,7.38
2023-04-02T09:11:05.153Z,7.03
2023-04-02T09:14:24.380Z,7.01
2023-04-02T09:17:50.619Z,7.11
2023-04-02T09:20:52.727Z,6.94
2023-04-02T09:24:05.474Z,6.86
2023-04-02T09:27:27.452Z,6.79
2023-04-02T09:30:55.448Z,6.79
2023-04-02T09:34:07.879Z,6.76
2023-04-02T09:37:27.096Z,6.90
2023-04-02T09:40:46.904Z,6.81
2023-04-02T09:44:22.894Z,6.92
2023-04-02T09:47:37.393Z,6.90
2023-04-02T09:50:49.940Z,6.64
2023-04-02T09:54:17.159Z,6.49
2023-04-02T09:57:33.079Z,6.53
2023-04-02T10:00:46.983Z,6.42
2023-04-02T10:04:00.300Z,6.35
2023-04-02T10:07:16.454Z,6.30
2023-04-02T10:10:34.287Z,6.37
2023-04-02T10:13:56.000Z,6.21
2023-04-02T10:17:15.383Z,6.21
2023-04-02T10:20:36.316Z,6.19
2023-04-02T10:23:47.393Z,6.20
2023-04-02T10:27:14.684Z,6.28
2023-04-02T10:30:33.429Z,6.31
2023-04-02T10:33:48.794Z,6.38
2023-04-02T10:37:07.459Z,6.42
2023-04-02T10:40:25.832Z,6.49
2023-04-02T10:44:24.271Z,6.42
2023-04-02T10:47:45.303Z,6.36
2023-04-02T10:51:03.854Z,6.42
2023-04-02T10:54:34.596Z,6.29
2023-04-02T10:57:49.978Z,6.43
2023-04-02T11:01:08.114Z,6.46
2023-04-02T11:04:26.904Z,6.50
2023-04-02T11:07:46.680Z,6.45
2023-04-02T11:11:05.019Z,6.40
2023-04-02T11:14:23.875Z,6.46
2023-04-02T11:17:37.029Z,6.56
2023-04-02T11:21:11.912Z,6.53
2023-04-02T11:24:42.404Z,6.51
2023-04-02T11:27:54.659Z,6.39
2023-04-02T11:31:07.762Z,6.35
2023-04-02T11:34:43.599Z,6.55
2023-04-02T11:37:56.373Z,6.48
2023-04-02T11:41:08.977Z,6.19
2023-04-02T11:44:31.633Z,6.31
2023-04-02T11:47:44.038Z,6.26
2023-04-02T11:50:56.986Z,6.20
2023-04-02T11:54:23.717Z,5.97
2023-04-02T11:58:15.241Z,5.98
2023-04-02T12:02:01.521Z,5.99
2023-04-02T12:05:26.118Z,5.97
2023-04-02T12:08:57.577Z,6.07
2023-04-02T12:12:21.156Z,5.93
2023-04-02T12:15:49.463Z,5.79
2023-04-02T12:19:02.337Z,5.88
2023-04-02T12:22:24.819Z,5.84
2023-04-02T12:25:41.048Z,5.96
2023-04-02T12:28:53.613Z,6.20
2023-04-02T12:32:08.273Z,6.21
2023-04-02T12:35:39.747Z,6.39
2023-04-02T12:38:56.495Z,6.51
2023-04-02T12:42:09.685Z,6.40
2023-04-02T12:45:33.590Z,6.43
2023-04-02T12:48:46.618Z,6.48
2023-04-02T12:52:00.137Z,6.40
2023-04-02T12:55:23.858Z,6.34
2023-04-02T12:58:41.773Z,6.40
2023-04-02T13:02:06.861Z,6.32
2023-04-02T13:19:39.471Z,6.27
2023-04-02T13:30:17.597Z,6.21
2023-04-02T13:33:30.299Z,6.26
2023-04-02T13:36:42.930Z,6.40
2023-04-02T13:39:55.588Z,6.44
2023-04-02T13:43:09.049Z,6.40
2023-04-02T13:46:27.000Z,6.28
2023-04-02T13:49:40.102Z,6.37
2023-04-02T13:52:53.382Z,6.31
2023-04-02T13:56:09.520Z,6.26
2023-04-02T13:59:22.754Z,6.27
2023-04-02T14:02:35.917Z,6.18
2023-04-02T14:05:55.786Z,6.11
2023-04-02T14:09:14.725Z,6.03
2023-04-02T14:12:34.826Z,6.00
2023-04-02T14:16:07.299Z,5.94
2023-04-02T14:19:39.316Z,5.68
2023-04-02T14:23:11.777Z,5.77
2023-04-02T14:26:29.795Z,5.74
2023-04-02T14:29:49.174Z,5.73
2023-04-02T14:33:09.045Z,5.76
2023-04-02T14:36:28.340Z,5.78
2023-04-02T14:39:49.674Z,5.80
2023-04-02T14:43:07.502Z,5.64
2023-04-02T14:46:20.282Z,5.49
2023-04-02T14:49:40.209Z,5.50
2023-04-02T14:52:57.081Z,5.58
2023-04-02T14:56:12.701Z,5.58
2023-04-02T14:59:40.264Z,5.50
2023-04-02T15:02:54.191Z,5.46
2023-04-02T15:06:10.031Z,5.47
2023-04-02T15:09:28.015Z,5.49
2023-04-02T15:12:42.826Z,5.41
2023-04-02T15:15:59.801Z,5.56
2023-04-02T15:19:15.646Z,5.46
2023-04-02T15:22:38.485Z,5.45
2023-04-02T15:25:55.202Z,5.33
2023-04-02T15:29:27.794Z,5.13
2023-04-02T15:32:38.797Z,5.02
2023-04-02T15:35:56.136Z,4.95
2023-04-02T15:39:15.422Z,5.00
2023-04-02T15:42:33.341Z,4.93
2023-04-02T15:46:01.070Z,4.99
2023-04-02T15:49:44.703Z,5.01
2023-04-02T15:53:03.323Z,4.96
2023-04-02T15:56:29.246Z,4.94
2023-04-02T16:00:01.010Z,5.17
2023-04-02T16:03:41.791Z,5.04
2023-04-02T16:07:09.420Z,4.84
2023-04-02T16:10:37.962Z,4.93
2023-04-02T16:13:41.113Z,4.87
2023-04-02T16:16:56.807Z,4.96
2023-04-02T16:20:21.293Z,4.81
2023-04-02T16:23:40.672Z,4.93
2023-04-02T16:27:10.377Z,4.85
2023-04-02T16:30:49.146Z,4.61
2023-04-02T16:34:10.893Z,4.83
2023-04-02T16:37:30.965Z,4.89
2023-04-02T16:41:00.556Z,4.85
2023-04-02T16:44:12.541Z,4.82
2023-04-02T16:47:37.558Z,4.83
2023-04-02T16:50:57.652Z,4.86
2023-04-02T16:54:15.872Z,4.79
2023-04-02T16:57:41.106Z,4.69
2023-04-02T17:00:59.697Z,4.72
2023-04-02T17:04:46.813Z,4.64
2023-04-02T17:08:04.548Z,4.56
2023-04-02T17:11:21.668Z,4.55
2023-04-02T17:14:35.544Z,4.52
2023-04-02T17:17:49.518Z,4.38
2023-04-02T17:21:06.036Z,4.61
2023-04-02T17:24:28.271Z,4.69
2023-04-02T17:27:45.678Z,4.59
2023-04-02T17:31:04.174Z,4.55
2023-04-02T17:34:24.079Z,4.54
2023-04-02T17:37:43.877Z,4.46
2023-04-02T17:41:01.414Z,4.53
2023-04-02T17:44:37.370Z,4.34
2023-04-02T17:48:03.538Z,4.42
2023-04-02T17:51:28.378Z,4.44
2023-04-02T17:54:49.769Z,4.39
2023-04-02T17:58:10.010Z,4.38
2023-04-02T18:01:30.032Z,4.36
2023-04-02T18:04:49.032Z,4.20
2023-04-02T18:08:12.557Z,4.22
2023-04-02T18:11:34.764Z,4.17
2023-04-02T18:15:02.601Z,4.07
2023-04-02T18:18:26.986Z,4.01
2023-04-02T18:21:46.943Z,4.04
2023-04-02T18:25:22.193Z,3.97
2023-04-02T18:28:52.612Z,4.04
2023-04-02T18:32:16.675Z,4.05
2023-04-02T18:35:35.673Z,4.08
2023-04-02T18:38:56.034Z,3.99
2023-04-02T18:42:14.887Z,4.06
2023-04-02T18:45:33.102Z,4.12
2023-04-02T18:48:55.043Z,4.07
2023-04-02T18:52:12.607Z,3.64
2023-04-02T18:55:29.361Z,3.98
2023-04-02T18:58:50.558Z,3.99
2023-04-02T19:02:05.522Z,4.04
2023-04-02T19:05:28.863Z,3.98
2023-04-02T19:08:48.139Z,4.07
2023-04-02T19:12:01.657Z,3.99
2023-04-02T19:15:24.798Z,4.10
2023-04-02T19:18:47.839Z,4.22
2023-04-02T19:22:30.483Z,4.08
2023-04-02T19:26:00.896Z,4.16
2023-04-02T19:29:23.642Z,4.08
2023-04-02T19:32:44.628Z,4.06
2023-04-02T19:36:02.284Z,4.01
2023-04-02T19:39:41.382Z,4.07
2023-04-02T19:42:54.951Z,4.07
2023-04-02T19:46:09.382Z,4.07
2023-04-02T19:49:24.153Z,4.02
2023-04-02T19:52:37.159Z,4.07
2023-04-02T19:55:50.898Z,4.02
2023-04-02T19:59:17.090Z,4.06
2023-04-02T20:02:18.703Z,4.02
2023-04-02T20:05:31.801Z,3.99
2023-04-02T20:08:44.545Z,4.00
2023-04-02T20:11:57.200Z,3.92
2023-04-02T20:15:11.794Z,3.96
2023-04-02T20:18:24.734Z,3.96
2023-04-02T20:21:38.676Z,4.01
2023-04-02T20:24:51.401Z,3.84
2023-04-02T20:28:04.178Z,4.03
2023-04-02T20:31:20.354Z,4.00
2023-04-02T20:34:33.369Z,4.10
2023-04-02T20:37:45.947Z,3.86
2023-04-02T20:41:01.918Z,3.72
2023-04-02T20:44:14.706Z,3.46
2023-04-02T20:47:27.235Z,3.61
2023-04-02T20:50:40.051Z,3.63
2023-04-02T20:53:53.952Z,3.54
2023-04-02T20:57:07.448Z,3.57
2023-04-02T21:00:22.768Z,3.55
2023-04-02T21:03:35.463Z,3.53
2023-04-02T21:06:48.812Z,3.49
2023-04-02T21:10:01.957Z,3.37
2023-04-02T21:13:14.890Z,3.42
2023-04-02T21:16:29.930Z,3.38
2023-04-02T21:19:42.844Z,3.18
2023-04-02T21:22:55.650Z,3.33
2023-04-02T21:26:11.246Z,3.39
2023-04-02T21:29:24.640Z,3.32
2023-04-02T21:32:37.728Z,3.17
2023-04-02T21:35:50.865Z,3.21
2023-04-02T21:39:06.294Z,3.16
2023-04-02T21:42:18.969Z,2.76
2023-04-02T21:45:31.715Z,2.97
2023-04-02T21:48:45.170Z,2.84
2023-04-02T21:51:58.181Z,2.88
2023-04-02T21:55:11.824Z,2.72
2023-04-02T21:58:24.436Z,2.84
2023-04-02T22:01:39.571Z,2.81
2023-04-02T22:04:52.307Z,2.80
2023-04-02T22:08:05.112Z,2.80
2023-04-02T22:11:21.133Z,2.86
2023-04-02T22:14:34.672Z,2.88
2023-04-02T22:17:47.339Z,2.86
2023-04-02T22:21:03.967Z,2.93
2023-04-02T22:24:22.225Z,2.89
2023-04-02T22:27:34.958Z,2.87
2023-04-02T22:30:47.572Z,2.80
2023-04-02T22:34:01.707Z,2.68
2023-04-02T22:37:14.598Z,2.85
2023-04-02T22:40:27.583Z,2.77
2023-04-02T22:43:41.333Z,2.82
2023-04-02T22:46:54.074Z,2.75
2023-04-02T22:50:06.725Z,2.80
2023-04-02T22:53:19.316Z,2.77
2023-04-02T22:56:37.795Z,2.76
2023-04-02T22:59:50.413Z,2.80
2023-04-02T23:03:03.330Z,2.73
2023-04-02T23:06:19.022Z,2.76
2023-04-02T23:09:31.805Z,2.70
2023-04-02T23:12:44.411Z,2.69
2023-04-02T23:15:56.871Z,2.64
2023-04-02T23:19:09.517Z,2.70
2023-04-02T23:22:21.913Z,2.74
2023-04-02T23:25:34.366Z,2.64
2023-04-02T23:28:47.657Z,2.64
2023-04-02T23:32:00.051Z,2.72
2023-04-02T23:35:13.545Z,2.83
2023-04-02T23:38:26.079Z,2.92
2023-04-02T23:41:39.733Z,2.78
2023-04-02T23:44:52.288Z,2.76
2023-04-02T23:48:04.740Z,2.78
2023-04-02T23:51:17.411Z,2.76
2023-04-02T23:54:29.894Z,2.55
2023-04-02T23:57:42.422Z,2.64
